createdAt,value
2023-03-21T00:00:34.960Z,38.50
2023-03-21T00:03:01.584Z,42.80
2023-03-21T00:05:28.420Z,43.35
2023-03-21T00:07:55.133Z,41.80
2023-03-21T00:10:37.149Z,43.30
2023-03-21T00:13:06.498Z,38.88
2023-03-21T00:15:42.562Z,45.53
2023-03-21T00:18:15.917Z,41.72
2023-03-21T00:20:47.484Z,44.35
2023-03-21T00:23:13.971Z,43.03
2023-03-21T00:25:40.497Z,42.67
2023-03-21T00:28:08.628Z,46.97
2023-03-21T00:30:35.595Z,41.88
2023-03-21T00:33:12.072Z,52.17
2023-03-21T00:36:01.848Z,47.17
2023-03-21T00:38:32.804Z,43.20
2023-03-21T00:41:04.676Z,44.92
2023-03-21T00:43:34.372Z,45.72
2023-03-21T00:46:01.318Z,45.92
2023-03-21T00:48:28.360Z,46.65
2023-03-21T00:50:57.302Z,46.42
2023-03-21T00:53:24.326Z,49.63
2023-03-21T00:55:51.026Z,41.50
2023-03-21T00:58:17.790Z,43.30
2023-03-21T01:00:47.060Z,50.55
2023-03-21T01:03:24.282Z,48.33
2023-03-21T01:06:05.093Z,47.17
2023-03-21T01:08:48.568Z,43.47
2023-03-21T01:11:18.900Z,47.38
2023-03-21T01:13:53.695Z,41.83
2023-03-21T01:16:24.707Z,47.10
2023-03-21T01:18:51.494Z,47.15
2023-03-21T01:21:18.494Z,42.38
2023-03-21T01:23:45.726Z,41.42
2023-03-21T01:26:13.594Z,42.53
2023-03-21T01:28:42.831Z,47.97
2023-03-21T01:31:12.619Z,43.70
2023-03-21T01:33:39.600Z,42.45
2023-03-21T01:36:13.012Z,40.50
2023-03-21T01:38:41.175Z,35.25
2023-03-21T01:41:18.755Z,33.85
2023-03-21T01:43:46.197Z,38.13
2023-03-21T01:46:49.353Z,36.55
2023-03-21T01:49:36.072Z,37.75
2023-03-21T01:52:15.198Z,38.47
2023-03-21T01:54:44.884Z,34.83
2023-03-21T01:57:17.978Z,40.53
2023-03-21T01:59:50.155Z,37.15
2023-03-21T02:02:23.307Z,40.22
2023-03-21T02:04:51.379Z,37.20
2023-03-21T02:07:37.890Z,44.15
2023-03-21T02:10:13.894Z,45.10
2023-03-21T02:12:40.506Z,41.30
2023-03-21T02:15:09.042Z,37.03
2023-03-21T02:17:43.516Z,35.08
2023-03-21T02:20:52.309Z,39.47
2023-03-21T02:23:37.668Z,39.53
2023-03-21T02:26:41.964Z,32.97
2023-03-21T02:29:33.748Z,38.50
2023-03-21T02:32:25.208Z,34.00
2023-03-21T02:35:23.328Z,39.88
2023-03-21T02:38:00.602Z,34.55
2023-03-21T02:40:39.950Z,37.40
2023-03-21T02:43:23.039Z,41.00
2023-03-21T02:46:12.191Z,45.00
2023-03-21T02:48:50.948Z,40.45
2023-03-21T02:51:22.146Z,40.95
2023-03-21T02:54:19.983Z,37.38
2023-03-21T02:56:41.539Z,37.10
2023-03-21T02:59:09.532Z,40.65
2023-03-21T03:01:36.228Z,41.35
2023-03-21T03:04:02.966Z,41.70
2023-03-21T03:06:38.374Z,36.88
2023-03-21T03:09:19.779Z,39.35
2023-03-21T03:11:51.153Z,34.85
2023-03-21T03:14:44.338Z,36.65
2023-03-21T03:17:28.584Z,37.60
2023-03-21T03:20:17.591Z,41.85
2023-03-21T03:22:51.594Z,40.42
2023-03-21T03:25:39.490Z,35.17
2023-03-21T03:28:10.134Z,39.53
2023-03-21T03:30:46.564Z,43.90
2023-03-21T03:33:23.578Z,41.45
2023-03-21T03:36:04.461Z,39.83
2023-03-21T03:38:35.776Z,44.30
2023-03-21T03:41:09.298Z,46.00
2023-03-21T03:43:48.830Z,40.63
2023-03-21T03:46:39.943Z,45.22
2023-03-21T03:49:17.184Z,46.70
2023-03-21T03:51:55.959Z,41.25
2023-03-21T03:54:42.500Z,42.13
2023-03-21T03:57:11.965Z,45.97
2023-03-21T03:59:41.577Z,41.55
2023-03-21T04:02:08.556Z,48.67
2023-03-21T04:04:36.912Z,40.58
2023-03-21T04:07:04.086Z,42.03
2023-03-21T04:09:43.105Z,42.80
2023-03-21T04:12:10.586Z,41.97
2023-03-21T04:14:44.512Z,42.30
2023-03-21T04:17:12.629Z,47.47
2023-03-21T04:19:39.226Z,41.10
2023-03-21T04:22:06.027Z,37.25
2023-03-21T04:24:33.941Z,43.72
2023-03-21T04:27:00.794Z,46.53
2023-03-21T04:29:29.842Z,46.20
2023-03-21T04:31:56.940Z,41.80
2023-03-21T04:34:28.321Z,45.63
2023-03-21T04:36:55.435Z,39.33
2023-03-21T04:39:22.182Z,49.78
2023-03-21T04:41:48.920Z,46.03
2023-03-21T04:44:17.082Z,51.85
2023-03-21T04:46:43.941Z,60.70
2023-03-21T04:49:10.680Z,53.70
2023-03-21T04:51:37.372Z,51.10
2023-03-21T04:54:04.083Z,54.88
2023-03-21T04:56:34.278Z,45.08
2023-03-21T04:59:06.060Z,48.00
2023-03-21T05:01:32.985Z,45.17
2023-03-21T05:04:01.456Z,55.70
2023-03-21T05:06:29.170Z,46.30
2023-03-21T05:09:00.135Z,53.15
2023-03-21T05:11:28.399Z,46.85
2023-03-21T05:13:54.870Z,39.05
2023-03-21T05:16:25.535Z,41.00
2023-03-21T05:18:55.636Z,44.63
2023-03-21T05:21:23.331Z,45.38
2023-03-21T05:23:54.702Z,48.60
2023-03-21T05:26:24.750Z,50.75
2023-03-21T05:28:51.609Z,47.05
2023-03-21T05:31:19.166Z,43.95
2023-03-21T05:33:46.702Z,54.80
2023-03-21T05:36:14.193Z,50.95
2023-03-21T05:38:45.761Z,47.83
2023-03-21T05:41:14.186Z,41.58
2023-03-21T05:43:40.670Z,55.53
2023-03-21T05:46:07.839Z,42.05
2023-03-21T05:48:35.006Z,45.33
2023-03-21T05:51:03.291Z,43.05
2023-03-21T05:53:30.813Z,46.08
2023-03-21T05:55:57.641Z,47.35
2023-03-21T05:58:24.189Z,44.30
2023-03-21T06:00:50.646Z,47.00
2023-03-21T06:03:17.245Z,45.47
2023-03-21T06:05:43.733Z,44.60
2023-03-21T06:08:10.243Z,42.33
2023-03-21T06:10:36.816Z,52.30
2023-03-21T06:13:03.534Z,45.97
2023-03-21T06:15:30.492Z,40.60
2023-03-21T06:17:57.054Z,42.70
2023-03-21T06:20:23.633Z,50.75
2023-03-21T06:22:50.158Z,46.75
2023-03-21T06:25:16.836Z,44.28
2023-03-21T06:27:43.462Z,44.45
2023-03-21T06:30:10.771Z,43.50
2023-03-21T06:32:37.260Z,40.47
2023-03-21T06:35:03.892Z,48.47
2023-03-21T06:37:30.384Z,41.60
2023-03-21T06:39:57.027Z,44.70
2023-03-21T06:42:23.577Z,40.30
2023-03-21T06:44:50.345Z,40.13
2023-03-21T06:47:16.926Z,40.17
2023-03-21T06:49:43.964Z,42.45
2023-03-21T06:52:11.475Z,33.08
2023-03-21T06:54:38.258Z,44.83
2023-03-21T06:57:04.792Z,42.30
2023-03-21T06:59:31.320Z,39.10
2023-03-21T07:01:57.796Z,43.45
2023-03-21T07:04:24.356Z,38.97
2023-03-21T07:06:50.823Z,40.78
2023-03-21T07:09:18.267Z,37.30
2023-03-21T07:11:44.808Z,38.97
2023-03-21T07:14:11.609Z,36.40
2023-03-21T07:16:38.148Z,31.40
2023-03-21T07:19:04.704Z,32.63
2023-03-21T07:21:31.360Z,32.63
2023-03-21T07:23:57.829Z,30.05
2023-03-21T07:26:24.405Z,31.15
2023-03-21T07:28:51.053Z,30.10
2023-03-21T07:31:17.892Z,30.50
2023-03-21T07:33:44.444Z,29.60
2023-03-21T07:36:15.991Z,30.45
2023-03-21T07:38:44.326Z,29.55
2023-03-21T07:41:11.090Z,31.77
2023-03-21T07:43:39.192Z,29.08
2023-03-21T07:46:06.368Z,29.48
2023-03-21T07:48:34.069Z,30.77
2023-03-21T07:51:02.390Z,30.30
2023-03-21T07:53:28.971Z,28.38
2023-03-21T07:55:56.857Z,30.20
2023-03-21T07:58:25.055Z,26.27
2023-03-21T08:00:52.996Z,31.33
2023-03-21T08:03:20.026Z,26.85
2023-03-21T08:05:46.905Z,23.85
2023-03-21T08:08:13.479Z,24.58
2023-03-21T08:10:42.935Z,23.05
2023-03-21T08:13:09.405Z,25.48
2023-03-21T08:15:36.113Z,21.48
2023-03-21T08:18:02.697Z,24.15
2023-03-21T08:20:29.290Z,24.05
2023-03-21T08:22:55.868Z,27.15
2023-03-21T08:25:23.071Z,22.75
2023-03-21T08:27:51.500Z,25.38
2023-03-21T08:30:21.692Z,21.77
2023-03-21T08:32:48.830Z,23.10
2023-03-21T08:35:17.657Z,20.55
2023-03-21T08:37:44.626Z,22.23
2023-03-21T08:40:13.976Z,19.48
2023-03-21T08:42:41.760Z,22.27
2023-03-21T08:45:11.301Z,22.20
2023-03-21T08:47:38.513Z,21.30
2023-03-21T08:50:07.803Z,20.63
2023-03-21T08:52:34.825Z,22.48
2023-03-21T08:55:02.381Z,23.67
2023-03-21T08:57:29.861Z,26.15
2023-03-21T08:59:56.531Z,21.35
2023-03-21T09:02:23.125Z,25.45
2023-03-21T09:04:49.873Z,23.20
2023-03-21T09:07:18.135Z,19.25
2023-03-21T09:09:47.609Z,19.60
2023-03-21T09:12:17.250Z,22.63
2023-03-21T09:14:43.809Z,19.83
2023-03-21T09:17:10.620Z,23.23
2023-03-21T09:19:38.995Z,22.80
2023-03-21T09:22:06.059Z,22.30
2023-03-21T09:24:32.562Z,20.25
2023-03-21T09:26:59.642Z,17.50
2023-03-21T09:29:26.604Z,21.30
2023-03-21T09:31:54.615Z,18.13
2023-03-21T09:34:21.327Z,19.27
2023-03-21T09:36:48.629Z,19.80
2023-03-21T09:39:16.293Z,22.98
2023-03-21T09:42:06.553Z,19.02
2023-03-21T09:44:54.992Z,22.95
2023-03-21T09:47:29.400Z,24.00
2023-03-21T09:50:12.879Z,21.45
2023-03-21T09:52:50.793Z,22.17
2023-03-21T09:55:26.409Z,19.55
2023-03-21T09:58:05.084Z,24.17
2023-03-21T10:00:47.056Z,22.40
2023-03-21T10:03:26.529Z,22.95
2023-03-21T10:05:58.788Z,23.70
2023-03-21T10:08:32.154Z,26.88
2023-03-21T10:11:02.385Z,23.00
2023-03-21T10:13:33.938Z,24.95
2023-03-21T10:16:06.648Z,22.52
2023-03-21T10:18:33.511Z,22.88
2023-03-21T10:21:01.935Z,20.52
2023-03-21T10:23:29.798Z,21.95
2023-03-21T10:26:00.645Z,22.35
2023-03-21T10:28:34.548Z,24.00
2023-03-21T10:31:09.123Z,24.88
2023-03-21T10:33:39.449Z,25.55
2023-03-21T10:36:08.098Z,23.52
2023-03-21T10:38:35.766Z,23.10
2023-03-21T10:41:02.243Z,25.23
2023-03-21T10:43:30.022Z,21.98
2023-03-21T10:45:57.166Z,22.13
2023-03-21T10:48:24.491Z,20.67
2023-03-21T10:50:55.660Z,23.60
2023-03-21T10:53:38.242Z,22.10
2023-03-21T10:56:11.818Z,23.08
2023-03-21T10:58:46.967Z,21.48
2023-03-21T11:01:26.143Z,25.23
2023-03-21T11:03:59.496Z,26.30
2023-03-21T11:06:31.723Z,22.95
2023-03-21T11:09:08.372Z,25.33
2023-03-21T11:11:41.568Z,27.83
2023-03-21T11:14:25.947Z,26.67
2023-03-21T11:16:52.569Z,22.50
2023-03-21T11:19:29.921Z,23.02
2023-03-21T11:22:06.225Z,24.00
2023-03-21T11:24:35.381Z,24.58
2023-03-21T11:27:07.276Z,27.67
2023-03-21T11:29:41.237Z,26.70
2023-03-21T11:32:26.236Z,26.92
2023-03-21T11:35:02.210Z,23.85
2023-03-21T11:37:39.626Z,27.52
2023-03-21T11:40:29.037Z,28.27
2023-03-21T11:43:05.022Z,24.33
2023-03-21T11:48:03.573Z,25.52
2023-03-21T11:50:37.322Z,27.95
2023-03-21T11:53:27.236Z,29.10
2023-03-21T11:56:11.814Z,28.55
2023-03-21T11:58:58.763Z,25.23
2023-03-21T12:01:54.966Z,28.33
2023-03-21T12:04:44.751Z,28.23
2023-03-21T12:07:11.242Z,30.25
2023-03-21T12:09:45.336Z,28.05
2023-03-21T12:12:38.937Z,27.58
2023-03-21T12:15:17.224Z,25.08
2023-03-21T12:17:54.458Z,25.83
2023-03-21T12:20:33.588Z,28.02
2023-03-21T12:23:35.798Z,25.05
2023-03-21T12:26:25.017Z,26.30
2023-03-21T12:29:27.182Z,26.40
2023-03-21T12:32:30.962Z,23.50
2023-03-21T12:35:09.678Z,25.10
2023-03-21T12:37:54.218Z,26.38
2023-03-21T12:40:35.873Z,26.33
2023-03-21T12:43:31.774Z,22.88
2023-03-21T12:46:05.877Z,25.40
2023-03-21T12:48:40.659Z,26.98
2023-03-21T12:51:12.937Z,23.48
2023-03-21T12:53:44.640Z,28.50
2023-03-21T12:56:17.218Z,26.27
2023-03-21T12:58:52.393Z,23.30
2023-03-21T13:01:21.550Z,23.50
2023-03-21T13:04:30.084Z,27.42
2023-03-21T13:07:02.301Z,25.35
2023-03-21T13:09:38.028Z,27.75
2023-03-21T13:12:39.045Z,21.92
2023-03-21T13:15:24.008Z,27.98
2023-03-21T13:18:01.672Z,27.37
2023-03-21T13:20:45.311Z,27.00
2023-03-21T13:23:13.591Z,27.80
2023-03-21T13:25:46.925Z,23.42
2023-03-21T13:28:31.359Z,30.00
2023-03-21T13:31:17.985Z,25.48
2023-03-21T13:33:48.710Z,25.95
2023-03-21T13:36:18.549Z,25.23
2023-03-21T13:38:51.190Z,23.65
2023-03-21T13:41:29.888Z,23.42
2023-03-21T13:44:02.331Z,23.85
2023-03-21T13:46:28.927Z,21.33
2023-03-21T13:48:59.693Z,22.45
2023-03-21T13:51:29.593Z,24.52
2023-03-21T13:54:02.194Z,25.73
2023-03-21T13:56:30.533Z,22.73
2023-03-21T13:59:02.127Z,25.20
2023-03-21T14:01:36.051Z,25.20
2023-03-21T14:04:23.974Z,25.27
2023-03-21T14:06:59.226Z,23.77
2023-03-21T14:09:32.638Z,22.08
2023-03-21T14:12:07.555Z,23.23
2023-03-21T14:14:38.907Z,24.33
2023-03-21T14:17:35.302Z,24.25
2023-03-21T14:20:25.676Z,23.23
2023-03-21T14:22:53.200Z,20.92
2023-03-21T14:25:23.149Z,22.67
2023-03-21T14:27:54.146Z,23.27
2023-03-21T14:30:22.908Z,26.25
2023-03-21T14:32:49.472Z,24.42
2023-03-21T14:35:16.402Z,22.88
2023-03-21T14:40:27.154Z,20.90
2023-03-21T14:42:54.711Z,24.35
2023-03-21T14:45:25.733Z,22.45
2023-03-21T14:47:56.760Z,24.08
2023-03-21T14:50:31.680Z,23.35
2023-03-21T14:52:59.194Z,26.23
2023-03-21T14:55:26.418Z,24.08
2023-03-21T14:57:56.010Z,22.98
2023-03-21T15:00:27.410Z,24.23
2023-03-21T15:02:55.135Z,24.10
2023-03-21T15:05:38.176Z,22.65
2023-03-21T15:08:12.658Z,24.67
2023-03-21T15:10:39.377Z,29.88
2023-03-21T15:13:25.326Z,25.48
2023-03-21T15:15:54.918Z,24.05
2023-03-21T15:18:33.074Z,28.25
2023-03-21T15:21:05.821Z,26.30
2023-03-21T15:23:53.791Z,26.48
2023-03-21T15:26:24.483Z,27.27
2023-03-21T15:28:57.162Z,25.63
2023-03-21T15:31:29.873Z,28.27
2023-03-21T15:33:56.668Z,23.15
2023-03-21T15:36:44.778Z,27.80
2023-03-21T15:39:15.811Z,30.95
2023-03-21T15:41:55.932Z,23.13
2023-03-21T15:44:22.545Z,24.83
2023-03-21T15:46:51.470Z,26.92
2023-03-21T15:49:21.164Z,26.92
2023-03-21T15:51:52.425Z,24.98
2023-03-21T15:54:27.213Z,24.30
2023-03-21T15:57:04.909Z,23.85
2023-03-21T15:59:36.526Z,23.60
2023-03-21T16:02:04.452Z,26.92
2023-03-21T16:04:31.340Z,23.48
2023-03-21T16:07:02.290Z,26.45
2023-03-21T16:09:39.287Z,25.45
2023-03-21T16:12:11.606Z,25.08
2023-03-21T16:14:38.932Z,34.38
2023-03-21T16:17:27.780Z,26.27
2023-03-21T16:19:54.718Z,26.98
2023-03-21T16:22:22.400Z,30.95
2023-03-21T16:24:49.242Z,27.88
2023-03-21T16:27:18.932Z,34.65
2023-03-21T16:29:45.742Z,30.48
2023-03-21T16:32:18.046Z,27.13
2023-03-21T16:34:44.830Z,27.85
2023-03-21T16:37:12.047Z,29.33
2023-03-21T16:39:42.934Z,24.38
2023-03-21T16:42:11.722Z,28.10
2023-03-21T16:44:39.561Z,30.27
2023-03-21T16:47:17.963Z,26.25
2023-03-21T16:49:44.964Z,25.70
2023-03-21T16:52:12.873Z,26.30
2023-03-21T16:54:40.442Z,27.65
2023-03-21T16:57:16.747Z,30.77
2023-03-21T16:59:43.975Z,31.02
2023-03-21T17:02:16.641Z,28.60
2023-03-21T17:04:44.614Z,27.27
2023-03-21T17:07:16.332Z,27.17
2023-03-21T17:09:48.028Z,27.67
2023-03-21T17:12:16.343Z,26.17
2023-03-21T17:14:44.580Z,27.58
2023-03-21T17:17:13.726Z,26.80
2023-03-21T17:19:43.420Z,25.70
2023-03-21T17:22:12.493Z,26.52
2023-03-21T17:24:39.923Z,28.63
2023-03-21T17:27:08.570Z,33.85
2023-03-21T17:29:35.168Z,38.20
2023-03-21T17:32:01.663Z,31.67
2023-03-21T17:34:28.174Z,33.58
2023-03-21T17:36:54.791Z,37.97
2023-03-21T17:39:24.198Z,30.35
2023-03-21T17:41:52.192Z,34.67
2023-03-21T17:44:19.961Z,31.17
2023-03-21T17:46:49.015Z,31.23
2023-03-21T17:49:16.835Z,32.50
2023-03-21T17:51:43.763Z,31.98
2023-03-21T17:54:10.440Z,29.10
2023-03-21T17:56:41.833Z,34.25
2023-03-21T17:59:12.660Z,36.67
2023-03-21T18:01:39.251Z,34.00
2023-03-21T18:04:06.228Z,32.97
2023-03-21T18:06:34.935Z,37.33
2023-03-21T18:09:07.024Z,38.45
2023-03-21T18:11:33.965Z,38.30
2023-03-21T18:14:14.952Z,31.77
2023-03-21T18:16:42.827Z,39.35
2023-03-21T18:19:12.777Z,40.30
2023-03-21T18:21:45.470Z,36.85
2023-03-21T18:24:12.697Z,25.17
2023-03-21T18:26:39.244Z,38.10
2023-03-21T18:34:34.370Z,40.65
2023-03-21T18:37:03.896Z,37.83
2023-03-21T18:39:31.629Z,40.08
2023-03-21T18:42:02.528Z,41.30
2023-03-21T18:44:30.496Z,37.00
2023-03-21T18:46:57.807Z,45.78
2023-03-21T18:50:06.013Z,45.30
2023-03-21T18:52:12.311Z,47.45
2023-03-21T18:54:39.234Z,47.88
2023-03-21T18:57:34.559Z,55.33
2023-03-21T18:59:53.262Z,48.83
2023-03-21T19:02:19.827Z,42.85
2023-03-21T19:04:46.590Z,49.50
2023-03-21T19:07:13.304Z,47.75
2023-03-21T19:10:01.465Z,43.33
2023-03-21T19:12:27.852Z,46.33
2023-03-21T19:14:55.029Z,39.67
2023-03-21T19:20:09.935Z,38.72
2023-03-21T19:22:36.822Z,34.17
2023-03-21T19:25:05.569Z,34.72
2023-03-21T19:27:34.680Z,16.70
2023-03-21T19:30:13.454Z,28.63
2023-03-21T19:32:40.973Z,38.53
2023-03-21T19:35:07.814Z,21.45
2023-03-21T19:37:36.323Z,34.05
2023-03-21T19:40:06.516Z,37.97
2023-03-21T19:42:36.267Z,28.85
2023-03-21T19:45:04.856Z,49.65
2023-03-21T19:47:31.566Z,41.55
2023-03-21T19:52:44.655Z,39.28
2023-03-21T19:57:43.003Z,33.67
2023-03-21T20:00:11.594Z,33.30
2023-03-21T20:02:38.384Z,31.75
2023-03-21T20:05:06.830Z,30.02
2023-03-21T20:07:33.456Z,32.30
2023-03-21T20:10:00.207Z,28.50
2023-03-21T20:12:27.597Z,20.90
2023-03-21T20:15:06.934Z,43.65
2023-03-21T20:17:38.981Z,34.35
2023-03-21T20:20:10.402Z,41.00
2023-03-21T20:23:05.342Z,27.77
2023-03-21T20:25:24.047Z,33.03
2023-03-21T20:28:07.305Z,17.30
2023-03-21T20:30:37.275Z,22.83
2023-03-21T20:33:04.359Z,33.70
2023-03-21T20:36:17.828Z,47.03
2023-03-21T20:38:20.561Z,16.73
2023-03-21T20:40:48.091Z,28.88
2023-03-21T20:44:06.683Z,31.45
2023-03-21T20:48:29.875Z,25.30
2023-03-21T20:51:44.987Z,34.50
2023-03-21T20:53:54.010Z,30.17
2023-03-21T20:56:20.779Z,29.25
2023-03-21T20:59:16.320Z,44.63
2023-03-21T21:01:33.815Z,18.25
2023-03-21T21:04:00.640Z,51.10
2023-03-21T21:06:28.702Z,39.53
2023-03-21T21:08:55.929Z,18.60
2023-03-21T21:14:09.382Z,26.88
2023-03-21T21:16:37.189Z,29.02
2023-03-21T21:19:03.702Z,31.27
2023-03-21T21:21:31.684Z,32.92
2023-03-21T21:23:58.419Z,37.35
2023-03-21T21:26:25.019Z,23.00
2023-03-21T21:28:53.231Z,21.73
2023-03-21T21:31:20.515Z,38.13
2023-03-21T21:33:50.107Z,33.70
2023-03-21T21:36:16.963Z,28.60
2023-03-21T21:38:43.589Z,44.88
2023-03-21T21:41:19.436Z,44.03
2023-03-21T21:43:46.931Z,28.95
2023-03-21T21:46:14.933Z,20.55
2023-03-21T21:48:41.868Z,43.08
2023-03-21T21:51:09.372Z,40.97
2023-03-21T21:53:36.626Z,35.13
2023-03-21T21:56:06.339Z,27.63
2023-03-21T21:58:34.026Z,21.30
2023-03-21T22:01:01.893Z,33.83
2023-03-21T22:03:41.064Z,22.48
2023-03-21T22:06:09.425Z,41.97
2023-03-21T22:08:36.196Z,28.25
2023-03-21T22:11:03.931Z,29.20
2023-03-21T22:13:30.689Z,23.67
2023-03-21T22:15:57.487Z,32.22
2023-03-21T22:18:24.001Z,24.08
2023-03-21T22:20:50.570Z,37.28
2023-03-21T22:23:19.448Z,28.10
2023-03-21T22:25:51.488Z,42.78
2023-03-21T22:28:18.114Z,39.90
2023-03-21T22:30:44.605Z,44.40
2023-03-21T22:33:11.180Z,42.25
2023-03-21T22:35:37.753Z,41.92
2023-03-21T22:38:04.333Z,37.35
2023-03-21T22:40:31.012Z,42.22
2023-03-21T22:42:57.498Z,33.10
2023-03-21T22:45:24.008Z,33.35
2023-03-21T22:47:50.637Z,27.02
2023-03-21T22:50:17.212Z,28.52
2023-03-21T22:52:43.664Z,38.13
2023-03-21T22:55:12.647Z,27.88
2023-03-21T22:57:39.200Z,30.95
2023-03-21T23:00:13.351Z,29.17
2023-03-21T23:02:40.953Z,36.35
2023-03-21T23:05:08.716Z,29.83
2023-03-21T23:07:35.447Z,40.47
2023-03-21T23:10:01.931Z,30.35
2023-03-21T23:12:29.138Z,33.53
2023-03-21T23:14:55.632Z,24.48
2023-03-21T23:17:22.107Z,28.88
2023-03-21T23:19:48.623Z,38.28
2023-03-21T23:22:15.165Z,28.90
2023-03-21T23:24:41.773Z,29.58
2023-03-21T23:27:08.282Z,32.80
2023-03-21T23:29:34.838Z,19.52
2023-03-21T23:32:01.348Z,29.35
2023-03-21T23:34:28.107Z,31.55
2023-03-21T23:36:54.724Z,31.08
2023-03-21T23:39:21.264Z,25.65
2023-03-21T23:41:47.876Z,25.48
2023-03-21T23:44:15.338Z,31.67
2023-03-21T23:46:41.894Z,20.25
2023-03-21T23:49:09.849Z,26.27
2023-03-21T23:51:36.339Z,35.17
2023-03-21T23:54:02.859Z,27.20
2023-03-21T23:56:29.391Z,29.40
2023-03-21T23:58:57.340Z,34.13
